Time;durP1;ratioP1;P1;durP2;ratioP2;P2;SDS_P1;SDS_P2;PMS_P1;PMS_P2;Temp;Humidity;BMP_temperature;BMP_pressure;BME280_temperature;BME280_humidity;BME280_pressure;Samples;Min_cycle;Max_cycle;Signal;HPM_P1;HPM_P2
2022/10/28 00:01:10;;;;;;;18.42;7.90;;;;;;;19.40;60.06;101716.03;4962693;28;124145;-68
2022/10/28 00:03:40;;;;;;;13.07;8.05;;;;;;;19.38;60.03;101712.59;4983881;28;113575;-68
2022/10/28 00:06:15;;;;;;;12.75;7.95;;;;;;;19.36;60.08;101715.38;4962795;28;113981;-67
2022/10/28 00:08:42;;;;;;;18.50;7.90;;;;;;;19.34;59.77;101711.09;4965540;28;123715;-68
2022/10/28 00:11:12;;;;;;;15.15;7.80;;;;;;;19.30;59.82;101710.44;4967676;28;123611;-68
2022/10/28 00:13:40;;;;;;;18.23;8.40;;;;;;;19.28;59.90;101709.69;4967949;28;115403;-68
2022/10/28 00:16:13;;;;;;;18.38;8.40;;;;;;;19.22;60.19;101710.97;4965160;28;113815;-68
2022/10/28 00:18:41;;;;;;;17.23;8.07;;;;;;;19.20;60.25;101714.72;4963964;28;123932;-68
2022/10/28 00:21:13;;;;;;;20.88;8.57;;;;;;;19.17;60.27;101718.47;4961811;28;123789;-68
2022/10/28 00:23:41;;;;;;;16.23;8.40;;;;;;;19.13;60.26;101714.25;4960611;28;115719;-68
2022/10/28 00:26:11;;;;;;;14.88;9.00;;;;;;;19.10;60.56;101713.59;4965506;28;114857;-68
2022/10/28 00:28:44;;;;;;;14.15;9.15;;;;;;;19.06;60.58;101718.31;4948858;28;123337;-68
2022/10/28 00:31:13;;;;;;;17.10;9.10;;;;;;;19.04;60.63;101709.50;4963369;28;124146;-68
2022/10/28 00:33:40;;;;;;;17.00;8.68;;;;;;;19.02;60.64;101712.31;4980321;28;115107;-68
2022/10/28 00:36:19;;;;;;;18.45;8.98;;;;;;;19.00;60.67;101708.00;4956141;28;114937;-68
2022/10/28 00:38:49;;;;;;;17.27;9.07;;;;;;;18.99;60.95;101706.28;4965142;28;123788;-67
2022/10/28 00:41:20;;;;;;;13.80;8.20;;;;;;;18.98;60.75;101701.88;4965309;28;123244;-68
2022/10/28 00:43:50;;;;;;;17.10;9.00;;;;;;;18.97;60.77;101700.16;4965072;28;113649;-68
2022/10/28 00:46:23;;;;;;;16.98;9.15;;;;;;;18.94;60.94;101703.03;4963782;28;113159;-68
2022/10/28 00:49:04;;;;;;;20.08;9.48;;;;;;;18.93;61.21;101695.94;4950570;28;124087;-68
2022/10/28 00:51:34;;;;;;;18.98;9.07;;;;;;;18.90;61.15;101696.16;4951072;28;123577;-67
2022/10/28 00:54:03;;;;;;;17.05;8.75;;;;;;;18.90;61.13;101701.53;4959674;28;113559;-68
2022/10/28 00:56:41;;;;;;;19.80;9.05;;;;;;;18.86;61.08;101696.34;4951951;28;113906;-67
2022/10/28 00:59:15;;;;;;;15.45;9.18;;;;;;;18.86;61.13;101695.50;4953356;28;124073;-68
2022/10/28 01:01:42;;;;;;;14.65;9.10;;;;;;;18.84;60.95;101692.91;4957544;28;124704;-68
2022/10/28 01:04:10;;;;;;;19.65;9.25;;;;;;;18.83;60.97;101693.00;4962953;28;113306;-68
2022/10/28 01:06:38;;;;;;;16.02;9.15;;;;;;;18.79;60.85;101684.25;4968874;28;113883;-67
2022/10/28 01:09:05;;;;;;;17.05;9.57;;;;;;;18.76;60.90;101679.13;4963852;28;124776;-68
2022/10/28 01:12:06;;;;;;;16.48;8.70;;;;;;;18.74;61.01;101681.06;4965096;28;123935;-67
2022/10/28 01:14:52;;;;;;;15.07;8.50;;;;;;;18.69;60.92;101677.81;4959764;28;115785;-68
2022/10/28 01:17:38;;;;;;;13.27;8.73;;;;;;;18.64;61.22;101664.66;4962004;28;115637;-67
2022/10/28 01:20:28;;;;;;;16.42;9.30;;;;;;;18.60;61.22;101665.00;4963839;28;123884;-68
2022/10/28 01:23:11;;;;;;;14.68;9.07;;;;;;;18.57;61.29;101657.13;4960231;28;122445;-68
2022/10/28 01:25:57;;;;;;;15.80;9.63;;;;;;;18.53;61.36;101660.97;4951860;28;113702;-68
2022/10/28 01:28:55;;;;;;;15.15;9.38;;;;;;;18.49;61.14;101650.44;4967781;28;113251;-68
2022/10/28 01:31:43;;;;;;;15.00;8.82;;;;;;;18.47;61.33;101652.38;4963858;28;124526;-68
2022/10/28 01:34:41;;;;;;;14.75;9.55;;;;;;;18.44;61.29;101641.84;4962194;28;123986;-67
2022/10/28 01:37:34;;;;;;;17.55;9.82;;;;;;;18.42;61.60;101646.47;4957925;28;114751;-68
2022/10/28 01:40:06;;;;;;;21.05;10.35;;;;;;;18.42;61.92;101643.78;4963647;28;96863;-68
2022/10/28 01:42:54;;;;;;;19.45;10.23;;;;;;;18.41;61.89;101642.03;4966649;28;124105;-68
2022/10/28 01:45:32;;;;;;;17.55;9.30;;;;;;;18.40;61.85;101659.13;4957866;28;123326;-68
2022/10/28 01:48:01;;;;;;;16.85;9.50;;;;;;;18.39;62.08;101654.69;4959135;28;114482;-68
2022/10/28 01:50:37;;;;;;;15.80;8.95;;;;;;;18.40;62.11;101656.44;4965516;28;114560;-68
2022/10/28 01:53:12;;;;;;;15.25;8.70;;;;;;;18.40;61.80;101650.19;4965319;28;123830;-68
2022/10/28 01:55:46;;;;;;;17.90;9.25;;;;;;;18.37;61.95;101651.25;4961612;28;122704;-68
2022/10/28 01:58:20;;;;;;;17.90;10.20;;;;;;;18.35;61.66;101647.81;4959549;28;114085;-67
2022/10/28 02:00:48;;;;;;;16.48;9.52;;;;;;;18.32;61.68;101648.00;4949450;28;112827;-68
2022/10/28 02:03:16;;;;;;;21.23;10.00;;;;;;;18.26;61.69;101653.78;4965321;28;123251;-68
2022/10/28 02:05:48;;;;;;;16.77;9.63;;;;;;;18.22;61.88;101657.63;4959689;28;123833;-68
2022/10/28 02:08:30;;;;;;;19.25;9.45;;;;;;;18.15;61.97;101656.28;4975686;28;115131;-67
2022/10/28 02:11:12;;;;;;;13.02;8.98;;;;;;;18.11;61.96;101654.78;4967762;28;115257;-66
2022/10/28 02:13:59;;;;;;;15.13;9.40;;;;;;;18.08;61.88;101651.31;4960904;28;124338;-68
2022/10/28 02:16:42;;;;;;;16.40;8.60;;;;;;;18.05;61.72;101650.66;4980723;28;124188;-68
2022/10/28 02:19:18;;;;;;;14.63;9.30;;;;;;;18.02;61.99;101654.38;4963758;28;114305;-68
2022/10/28 02:22:04;;;;;;;14.23;8.55;;;;;;;17.98;61.91;101647.50;4963123;28;113597;-68
2022/10/28 02:24:37;;;;;;;;;;;;;;;17.94;61.59;101643.28;4964663;28;125474;-68
2022/10/28 02:27:15;;;;;;;12.38;8.55;;;;;;;17.92;61.69;101639.84;4981475;28;123160;-68
2022/10/28 02:30:05;;;;;;;13.52;8.48;;;;;;;17.89;61.66;101650.75;4966447;28;113321;-67
2022/10/28 02:32:44;;;;;;;13.20;8.85;;;;;;;17.85;61.76;101643.88;4961880;28;113933;-68
2022/10/28 02:35:19;;;;;;;17.92;8.90;;;;;;;17.82;61.69;101644.00;4961656;28;124671;-68
2022/10/28 02:37:48;;;;;;;15.35;9.15;;;;;;;17.80;61.69;101648.63;4976278;28;123984;-68
2022/10/28 02:40:21;;;;;;;16.50;8.82;;;;;;;17.75;61.78;101638.19;4959000;28;113305;-68
2022/10/28 02:42:54;;;;;;;14.25;8.85;;;;;;;17.74;61.78;101640.97;4962531;28;113807;-68
2022/10/28 02:45:25;;;;;;;17.80;8.10;;;;;;;17.72;61.77;101635.69;4957148;28;123741;-68
2022/10/28 02:47:57;;;;;;;17.83;8.50;;;;;;;17.69;61.76;101639.44;4964191;28;123708;-68
2022/10/28 02:50:31;;;;;;;15.48;8.38;;;;;;;17.68;61.81;101637.69;4965751;28;114265;-67
2022/10/28 02:53:00;;;;;;;17.67;8.77;;;;;;;17.66;61.70;101628.91;4970962;28;114508;-68
2022/10/28 02:55:34;;;;;;;16.33;8.45;;;;;;;17.64;62.12;101629.97;4969410;28;123817;-67
2022/10/28 02:58:02;;;;;;;21.30;9.00;;;;;;;17.62;61.95;101627.38;4964688;28;124076;-68
2022/10/28 03:00:29;;;;;;;15.88;8.63;;;;;;;17.61;61.92;101628.34;4963524;28;115534;-68
2022/10/28 03:02:56;;;;;;;13.70;8.75;;;;;;;17.58;62.26;101625.84;4969825;28;114271;-68
2022/10/28 03:05:23;;;;;;;14.30;8.45;;;;;;;17.56;62.02;101611.69;4964164;28;123921;-68
2022/10/28 03:07:50;;;;;;;14.35;8.32;;;;;;;17.55;62.15;101625.19;4960763;28;124767;-68
2022/10/28 03:10:17;;;;;;;17.20;8.98;;;;;;;17.51;62.18;101622.69;4968364;28;114934;-68
2022/10/28 03:12:44;;;;;;;14.75;8.30;;;;;;;17.51;62.23;101624.50;4966882;28;114849;-68
2022/10/28 03:15:11;;;;;;;14.73;8.27;;;;;;;17.51;62.34;101624.50;4957936;28;123996;-67
2022/10/28 03:17:39;;;;;;;15.82;8.00;;;;;;;17.50;62.17;101622.81;4970674;28;123716;-68
2022/10/28 03:20:06;;;;;;;16.20;8.20;;;;;;;17.47;62.00;101622.97;4965468;28;114844;-68
2022/10/28 03:22:33;;;;;;;16.60;7.85;;;;;;;17.45;62.06;101620.38;4964981;28;113943;-68
2022/10/28 03:25:00;;;;;;;19.23;8.60;;;;;;;17.44;62.03;101617.81;4959453;28;125173;-66
2022/10/28 03:27:27;;;;;;;16.90;8.30;;;;;;;17.41;61.90;101628.72;4964400;28;124626;-67
2022/10/28 03:29:54;;;;;;;13.85;7.63;;;;;;;17.39;61.85;101630.63;4963548;28;113917;-68
2022/10/28 03:32:21;;;;;;;12.80;7.70;;;;;;;17.37;61.93;101616.47;4963845;28;113713;-68
2022/10/28 03:34:53;;;;;;;13.95;8.20;;;;;;;17.35;61.93;101621.03;4958649;28;126637;-68
2022/10/28 03:37:20;;;;;;;16.52;7.85;;;;;;;17.32;61.69;101619.41;4953044;28;122137;-67
2022/10/28 03:39:47;;;;;;;15.02;8.52;;;;;;;17.28;62.03;101613.38;4965992;28;114100;-67
2022/10/28 03:42:14;;;;;;;18.83;8.05;;;;;;;17.26;62.10;101615.31;4960314;28;113934;-70
2022/10/28 03:44:41;;;;;;;18.10;8.40;;;;;;;17.25;62.10;101613.59;4966371;28;124013;-67
2022/10/28 03:47:09;;;;;;;16.15;8.30;;;;;;;17.23;62.05;101606.59;4970485;28;123770;-68
2022/10/28 03:49:36;;;;;;;15.20;8.18;;;;;;;17.20;62.20;101615.69;4961002;28;114609;-68
2022/10/28 03:52:03;;;;;;;14.23;8.18;;;;;;;17.20;62.21;101610.31;4982903;28;114409;-68
2022/10/28 03:54:30;;;;;;;15.52;7.43;;;;;;;17.20;62.42;101621.03;4962063;28;122186;-67
2022/10/28 03:56:57;;;;;;;18.00;8.90;;;;;;;17.18;62.35;101617.59;4965446;28;123674;-67
2022/10/28 03:59:24;;;;;;;20.98;8.13;;;;;;;17.17;62.23;101610.50;4967289;28;114206;-68
2022/10/28 04:01:51;;;;;;;16.65;8.35;;;;;;;17.15;62.13;101612.41;4965030;28;113664;-68
2022/10/28 04:04:18;;;;;;;14.52;7.93;;;;;;;17.14;62.18;101616.06;4966018;28;124262;-68
2022/10/28 04:06:45;;;;;;;15.40;8.00;;;;;;;17.12;62.23;101617.94;4968197;28;124011;-68
2022/10/28 04:09:12;;;;;;;13.38;8.02;;;;;;;17.09;62.35;101616.31;4963672;28;113116;-68
2022/10/28 04:11:39;;;;;;;14.43;7.80;;;;;;;17.08;62.29;101611.06;4966151;28;114022;-68
2022/10/28 04:14:06;;;;;;;16.02;8.75;;;;;;;17.06;62.54;101608.47;4967287;28;123134;-67
2022/10/28 04:16:33;;;;;;;17.60;9.02;;;;;;;17.07;62.65;101604.00;4964991;28;123595;-68
2022/10/28 04:19:00;;;;;;;20.92;8.68;;;;;;;17.07;62.87;101604.84;4962629;28;114344;-68
2022/10/28 04:21:27;;;;;;;16.45;7.97;;;;;;;17.09;62.93;101618.16;4962731;28;113795;-68
2022/10/28 04:23:54;;;;;;;12.20;7.72;;;;;;;17.08;62.80;101605.69;4965778;28;124159;-68
2022/10/28 04:26:21;;;;;;;17.65;7.85;;;;;;;17.07;62.73;101612.03;4961762;28;123947;-68
2022/10/28 04:28:48;;;;;;;18.15;7.70;;;;;;;17.05;62.70;101600.56;4966483;28;114506;-68
2022/10/28 04:31:15;;;;;;;12.95;8.10;;;;;;;17.02;62.73;101606.06;4968937;28;114295;-68
2022/10/28 04:33:42;;;;;;;14.57;8.38;;;;;;;17.02;62.90;101600.72;4964571;28;123098;-68
2022/10/28 04:36:09;;;;;;;17.70;7.65;;;;;;;17.00;62.99;101608.84;4960515;28;122597;-68
2022/10/28 04:38:36;;;;;;;16.23;7.65;;;;;;;17.02;63.25;101614.09;4968134;28;115852;-67
2022/10/28 04:41:03;;;;;;;16.52;7.82;;;;;;;17.06;63.25;101623.66;4962602;28;115789;-68
2022/10/28 04:43:30;;;;;;;14.35;7.97;;;;;;;17.07;62.99;101620.06;4970331;28;123794;-67
2022/10/28 04:46:01;;;;;;;14.52;7.38;;;;;;;17.09;63.25;101623.50;4964779;28;123707;-67
2022/10/28 04:48:28;;;;;;;18.65;7.63;;;;;;;17.12;63.14;101620.63;4966336;28;114171;-68
2022/10/28 04:50:56;;;;;;;17.27;7.50;;;;;;;17.15;62.99;101623.13;4953074;28;112969;-68
2022/10/28 04:53:23;;;;;;;20.15;7.22;;;;;;;17.17;63.12;101621.22;4963967;28;123472;-68
2022/10/28 04:55:50;;;;;;;13.48;6.85;;;;;;;17.19;63.06;101613.09;4961938;28;124543;-68
2022/10/28 04:58:17;;;;;;;16.38;6.93;;;;;;;17.19;63.12;101613.94;4964572;28;113612;-68
2022/10/28 05:00:44;;;;;;;15.82;7.07;;;;;;;17.22;63.05;101612.91;4963423;28;114260;-68
2022/10/28 05:03:11;;;;;;;16.77;7.28;;;;;;;17.24;63.14;101611.84;4976243;28;123004;-67
2022/10/28 05:05:39;;;;;;;15.65;7.07;;;;;;;17.27;62.73;101611.69;4966760;28;123631;-68
2022/10/28 05:08:06;;;;;;;17.33;7.07;;;;;;;17.29;62.92;101622.28;4957757;28;115192;-68
2022/10/28 05:10:34;;;;;;;16.33;6.45;;;;;;;17.31;62.90;101618.56;4961642;28;114251;-67
2022/10/28 05:13:00;;;;;;;16.23;6.45;;;;;;;17.34;62.85;101616.66;4958982;28;122376;-67
2022/10/28 05:15:30;;;;;;;17.83;7.10;;;;;;;17.35;62.77;101618.34;4963922;28;123820;-67
2022/10/28 05:17:57;;;;;;;13.38;6.78;;;;;;;17.35;62.24;101613.00;4966845;28;113729;-68
2022/10/28 05:20:24;;;;;;;13.45;6.85;;;;;;;17.35;62.55;101604.97;4965066;28;113264;-67
2022/10/28 05:22:53;;;;;;;14.45;7.00;;;;;;;17.35;62.38;101613.00;4964680;28;124155;-67
2022/10/28 05:25:21;;;;;;;12.00;6.80;;;;;;;17.35;62.37;101613.00;4971327;28;123964;-68
2022/10/28 05:27:48;;;;;;;20.88;6.70;;;;;;;17.34;62.11;101611.31;4967143;28;115534;-67
2022/10/28 05:30:15;;;;;;;16.38;7.18;;;;;;;17.31;62.32;101607.84;4960747;28;116046;-68
2022/10/28 05:32:43;;;;;;;17.40;7.55;;;;;;;17.30;62.20;101606.13;4976091;28;124426;-68
2022/10/28 05:35:10;;;;;;;16.95;7.35;;;;;;;17.27;62.24;101600.97;4964087;28;123880;-68
2022/10/28 05:37:37;;;;;;;19.02;6.95;;;;;;;17.27;62.31;101606.31;4958588;28;114219;-68
2022/10/28 05:40:05;;;;;;;12.48;6.60;;;;;;;17.26;62.24;101604.59;4954635;28;114190;-67
2022/10/28 05:42:32;;;;;;;17.55;6.90;;;;;;;17.25;62.40;101599.31;4960362;28;124271;-67
2022/10/28 05:44:59;;;;;;;16.98;6.90;;;;;;;17.24;62.25;101595.78;4961244;28;123837;-67
2022/10/28 05:47:26;;;;;;;15.45;7.18;;;;;;;17.23;62.32;101599.41;4950940;28;114111;-68
2022/10/28 05:49:53;;;;;;;14.55;7.40;;;;;;;17.24;62.49;101590.44;4959685;28;113986;-68
2022/10/28 05:52:20;;;;;;;15.45;7.75;;;;;;;17.24;62.36;101590.44;4963598;28;124166;-69
2022/10/28 05:54:47;;;;;;;17.42;7.30;;;;;;;17.25;62.49;101592.19;4967249;28;124843;-68
2022/10/28 05:57:14;;;;;;;13.25;7.35;;;;;;;17.24;62.31;101595.78;4966045;28;114905;-67
2022/10/28 05:59:41;;;;;;;11.80;6.75;;;;;;;17.25;62.30;101597.53;4954374;28;113334;-68
2022/10/28 06:02:12;;;;;;;14.32;7.20;;;;;;;17.24;62.39;101595.78;4956054;28;125270;-67
2022/10/28 06:04:40;;;;;;;14.55;6.95;;;;;;;17.24;62.33;101601.16;4968947;28;124023;-67
2022/10/28 06:07:08;;;;;;;15.18;7.22;;;;;;;17.24;62.39;101603.81;4954566;28;113238;-68
2022/10/28 06:09:35;;;;;;;16.52;7.20;;;;;;;17.23;62.34;101604.75;4960720;28;114172;-68
2022/10/28 06:12:03;;;;;;;18.60;7.00;;;;;;;17.26;62.41;101603.75;4965723;28;123886;-67
2022/10/28 06:14:31;;;;;;;17.10;6.82;;;;;;;17.27;62.54;101605.44;4963989;28;123806;-67
2022/10/28 06:16:58;;;;;;;13.75;6.72;;;;;;;17.29;62.45;101606.22;4952588;28;114253;-67
2022/10/28 06:19:25;;;;;;;14.15;6.88;;;;;;;17.30;62.60;101614.16;4965281;28;114886;-68
2022/10/28 06:21:52;;;;;;;15.13;7.15;;;;;;;17.34;62.64;101611.31;4957490;28;124466;-68
2022/10/28 06:24:19;;;;;;;21.45;7.82;;;;;;;17.35;62.78;101607.66;4967387;28;123261;-68
2022/10/28 06:26:47;;;;;;;15.85;7.47;;;;;;;17.37;62.50;101616.47;4960140;28;114131;-68
2022/10/28 06:29:14;;;;;;;17.25;6.82;;;;;;;17.40;62.53;101610.91;4977452;28;113846;-68
2022/10/28 06:31:42;;;;;;;17.52;6.43;;;;;;;17.42;62.57;101603.66;4963460;28;123965;-68
2022/10/28 06:34:09;;;;;;;21.63;6.78;;;;;;;17.44;62.48;101612.44;4964403;28;124113;-67
2022/10/28 06:36:37;;;;;;;20.38;7.10;;;;;;;17.46;62.39;101615.88;4983446;28;113970;-67
2022/10/28 06:39:05;;;;;;;18.35;6.63;;;;;;;17.48;62.27;101616.69;4960709;28;113930;-67
2022/10/28 06:41:32;;;;;;;14.05;6.55;;;;;;;17.49;62.33;101615.72;4959669;28;123899;-68
2022/10/28 06:43:59;;;;;;;15.35;7.15;;;;;;;17.49;62.43;101616.56;4963275;28;123888;-68
2022/10/28 06:46:26;;;;;;;15.07;6.68;;;;;;;17.53;62.50;101622.59;4961695;28;114773;-68
2022/10/28 06:48:54;;;;;;;20.50;6.85;;;;;;;17.55;62.61;101620.66;4960903;28;114653;-68
2022/10/28 06:51:22;;;;;;;15.32;7.30;;;;;;;17.57;62.54;101618.75;4958424;28;123275;-68
2022/10/28 06:53:50;;;;;;;13.65;7.13;;;;;;;17.59;62.48;101622.19;4961447;28;124030;-68
2022/10/28 06:56:17;;;;;;;17.98;6.75;;;;;;;17.63;62.73;101629.13;4939611;28;115437;-68
2022/10/28 06:58:52;;;;;;;16.77;7.38;;;;;;;17.66;62.70;101628.91;4957999;28;113859;-67
2022/10/28 07:01:20;;;;;;;16.47;6.60;;;;;;;17.72;62.62;101624.97;4956225;28;124998;-68
2022/10/28 07:03:47;;;;;;;20.88;6.97;;;;;;;17.77;62.72;101624.72;4947648;28;123243;-68
2022/10/28 07:06:15;;;;;;;17.25;7.25;;;;;;;17.83;62.75;101610.91;4956504;28;114116;-68
2022/10/28 07:08:43;;;;;;;15.45;6.38;;;;;;;17.91;62.64;101616.66;4958586;28;114616;-67
2022/10/28 07:11:10;;;;;;;14.07;6.95;;;;;;;17.97;62.77;101616.31;4965065;28;124705;-68
2022/10/28 07:13:37;;;;;;;24.65;6.85;;;;;;;18.03;62.81;101618.59;4957530;28;124223;-68
2022/10/28 07:16:04;;;;;;;15.52;6.90;;;;;;;18.09;62.73;101623.53;4959005;28;114305;-68
2022/10/28 07:18:31;;;;;;;21.13;6.90;;;;;;;18.16;62.55;101623.13;4962115;28;113987;-68
2022/10/28 07:20:59;;;;;;;18.00;6.65;;;;;;;18.23;62.62;101616.41;4956146;28;124320;-68
2022/10/28 07:23:27;;;;;;;16.38;6.50;;;;;;;18.28;62.43;101625.03;4956487;28;123627;-68
2022/10/28 07:25:55;;;;;;;17.45;6.50;;;;;;;18.34;62.39;101624.63;4961516;28;114415;-67
2022/10/28 07:28:24;;;;;;;18.48;6.38;;;;;;;18.40;62.45;101624.25;4966097;28;115241;-68
2022/10/28 07:30:51;;;;;;;13.85;6.72;;;;;;;18.46;61.99;101631.88;4966765;28;124046;-68
2022/10/28 07:33:18;;;;;;;15.57;7.15;;;;;;;18.51;62.03;101628.03;4940310;28;123077;-67
2022/10/28 07:35:45;;;;;;;14.65;6.47;;;;;;;18.55;62.12;101632.22;4955539;28;114112;-67
2022/10/28 07:38:12;;;;;;;18.95;7.05;;;;;;;18.60;61.90;101624.75;4962820;28;113271;-67
2022/10/28 07:40:39;;;;;;;19.80;7.22;;;;;;;18.66;61.98;101624.31;4971431;28;123605;-66
2022/10/28 07:43:07;;;;;;;13.50;6.60;;;;;;;18.71;61.95;101626.72;4969564;28;124022;-67
2022/10/28 07:45:34;;;;;;;11.70;6.45;;;;;;;18.76;62.12;101630.81;4967669;28;114122;-67
2022/10/28 07:48:03;;;;;;;15.85;7.13;;;;;;;18.82;62.02;101627.75;4959778;28;113671;-66
2022/10/28 07:50:30;;;;;;;17.83;7.13;;;;;;;18.89;62.00;101630.00;4962184;28;124206;-66
2022/10/28 07:52:58;;;;;;;17.90;6.68;;;;;;;18.97;62.17;101638.41;4964066;28;122936;-66
2022/10/28 07:55:25;;;;;;;14.30;6.65;;;;;;;19.03;62.20;101643.38;4963502;28;115378;-67
2022/10/28 07:57:53;;;;;;;17.15;6.60;;;;;;;19.11;62.02;101638.31;4970114;28;114035;-67
2022/10/28 08:00:20;;;;;;;21.85;7.20;;;;;;;19.19;62.21;101638.69;4969818;28;124766;-66
2022/10/28 08:02:47;;;;;;;13.63;6.35;;;;;;;19.29;62.22;101632.63;4971419;28;124563;-66
2022/10/28 08:05:14;;;;;;;11.68;5.65;;;;;;;19.39;61.98;101628.38;4971805;28;114255;-67
2022/10/28 08:07:41;;;;;;;17.45;6.55;;;;;;;19.50;62.02;101631.16;4970243;28;112756;-67
2022/10/28 08:10:08;;;;;;;11.73;6.15;;;;;;;19.62;61.90;101624.06;4971267;28;123841;-66
2022/10/28 08:12:35;;;;;;;14.65;6.53;;;;;;;19.72;61.86;101624.25;4967694;28;124289;-67
2022/10/28 08:15:03;;;;;;;16.17;6.93;;;;;;;19.82;61.80;101625.38;4952182;28;114008;-67
2022/10/28 08:17:31;;;;;;;16.55;6.53;;;;;;;19.93;61.71;101621.88;4952054;28;113800;-67
2022/10/28 08:19:58;;;;;;;13.70;6.82;;;;;;;20.02;61.58;101622.09;4951327;28;123928;-67
2022/10/28 08:22:25;;;;;;;13.30;7.05;;;;;;;20.12;61.29;101618.75;4946328;28;123065;-69
2022/10/28 08:24:52;;;;;;;16.85;7.10;;;;;;;20.22;61.46;101617.09;4970011;28;113978;-69
2022/10/28 08:27:18;;;;;;;13.32;6.95;;;;;;;20.32;61.21;101634.25;4968334;28;113253;-69
2022/10/28 08:29:45;;;;;;;17.65;7.47;;;;;;;20.42;61.07;101627.22;4963021;28;123285;-70
2022/10/28 08:32:13;;;;;;;13.27;6.93;;;;;;;20.53;60.78;101625.56;4968915;28;123893;-70
2022/10/28 08:34:40;;;;;;;12.32;6.65;;;;;;;20.64;60.75;101627.50;4969744;28;114164;-67
2022/10/28 08:37:10;;;;;;;16.40;6.93;;;;;;;20.73;60.58;101638.41;4970401;28;113828;-67
2022/10/28 08:39:37;;;;;;;13.75;7.65;;;;;;;20.82;60.50;101636.03;4968731;28;123503;-67
2022/10/28 08:42:28;;;;;;;15.48;7.13;;;;;;;20.93;60.34;101645.00;4949355;28;123075;-67
2022/10/28 08:45:33;;;;;;;15.50;7.18;;;;;;;21.04;60.07;101641.50;4963504;28;115283;-67
2022/10/28 08:48:36;;;;;;;20.00;7.28;;;;;;;21.14;60.02;101626.31;4948895;28;113962;-67
2022/10/28 08:51:17;;;;;;;14.82;7.70;;;;;;;21.26;59.91;101629.03;4942713;28;122762;-67
2022/10/28 08:53:51;;;;;;;18.73;7.35;;;;;;;21.35;59.68;101628.31;4968969;28;123172;-67
2022/10/28 08:56:29;;;;;;;16.27;5.72;;;;;;;21.44;59.50;101633.03;4967895;28;114477;-67
2022/10/28 08:59:00;;;;;;;13.75;6.47;;;;;;;21.52;59.19;101638.66;4970260;28;114923;-67
2022/10/28 09:01:45;;;;;;;12.60;5.97;;;;;;;21.62;59.03;101632.53;4952565;28;123249;-68
2022/10/28 09:04:38;;;;;;;15.82;5.55;;;;;;;21.70;58.73;101627.38;4955991;28;123950;-69
2022/10/28 09:07:12;;;;;;;15.52;5.72;;;;;;;21.81;58.63;101624.69;4953701;28;114229;-67
2022/10/28 09:09:39;;;;;;;16.95;5.50;;;;;;;21.90;58.50;101613.16;4953566;28;113915;-67
2022/10/28 09:12:26;;;;;;;13.95;5.18;;;;;;;22.00;58.43;101617.81;4955544;28;123736;-67
2022/10/28 09:15:28;;;;;;;10.48;4.55;;;;;;;22.11;58.18;101621.38;4967562;28;125049;-67
2022/10/28 09:18:17;;;;;;;11.38;5.18;;;;;;;22.23;58.07;101624.91;4958271;28;114367;-70
2022/10/28 09:20:53;;;;;;;17.23;5.43;;;;;;;22.35;57.75;101628.47;4973310;28;115089;-67
2022/10/28 09:23:23;;;;;;;17.05;4.57;;;;;;;22.46;57.41;101635.69;4963699;28;124903;-67
2022/10/28 09:26:02;;;;;;;11.98;4.80;;;;;;;22.59;57.33;101635.50;4968583;28;125126;-67
2022/10/28 09:28:43;;;;;;;12.00;4.93;;;;;;;22.70;57.03;101644.44;4968064;28;113952;-67
2022/10/28 09:31:34;;;;;;;15.05;4.72;;;;;;;22.80;56.65;101639.09;4968151;28;113740;-67
2022/10/28 09:34:06;;;;;;;13.07;4.47;;;;;;;22.90;56.27;101633.78;4958221;28;124529;-67
2022/10/28 09:36:42;;;;;;;12.32;4.35;;;;;;;22.97;55.96;101634.97;4952796;28;124328;-68
2022/10/28 09:39:24;;;;;;;13.18;4.88;;;;;;;23.06;55.78;101650.44;4950599;28;115843;-67
2022/10/28 09:41:58;;;;;;;14.87;5.23;;;;;;;23.15;55.64;101648.81;4983780;28;113950;-67
2022/10/28 09:44:56;;;;;;;10.63;4.60;;;;;;;23.22;55.83;101643.72;4965008;28;124538;-67
2022/10/28 09:47:31;;;;;;;10.82;4.53;;;;;;;23.31;55.47;101648.31;4947378;28;124659;-67
2022/10/28 09:50:02;;;;;;;13.15;5.05;;;;;;;23.41;55.40;101640.25;4963723;28;113307;-68
2022/10/28 09:52:37;;;;;;;13.52;4.97;;;;;;;23.50;55.23;101637.59;4958993;28;114376;-68
2022/10/28 09:55:19;;;;;;;19.05;5.55;;;;;;;23.60;54.93;101644.91;4964921;28;123515;-68
2022/10/28 09:57:46;;;;;;;14.45;4.57;;;;;;;23.70;54.74;101643.13;4958714;28;123863;-67
2022/10/28 10:00:15;;;;;;;15.52;4.75;;;;;;;23.79;54.23;101652.31;4967045;28;115205;-68
2022/10/28 10:02:43;;;;;;;10.95;4.63;;;;;;;23.83;54.22;101643.78;4946197;28;112999;-68
2022/10/28 10:05:16;;;;;;;14.88;4.70;;;;;;;23.88;53.94;101646.97;4963406;28;124088;-68
2022/10/28 10:07:58;;;;;;;13.38;4.43;;;;;;;23.95;53.45;101646.41;4968295;28;124214;-68
2022/10/28 10:10:30;;;;;;;16.08;5.00;;;;;;;23.98;53.68;101640.69;4972591;28;113574;-67
2022/10/28 10:13:01;;;;;;;12.98;4.65;;;;;;;24.01;53.51;101640.44;4969668;28;113039;-67
2022/10/28 10:15:32;;;;;;;13.35;4.75;;;;;;;24.07;53.19;101645.28;4965868;28;123497;-67
2022/10/28 10:18:00;;;;;;;13.40;4.75;;;;;;;24.10;53.04;101645.03;4965575;28;123735;-68
2022/10/28 10:20:45;;;;;;;10.68;4.28;;;;;;;24.14;52.99;101646.44;4952191;28;112950;-68
2022/10/28 10:23:31;;;;;;;12.38;4.53;;;;;;;24.20;53.16;101645.88;4976757;28;113829;-67
2022/10/28 10:26:03;;;;;;;14.93;4.55;;;;;;;24.27;52.86;101636.22;4964021;28;123846;-68
2022/10/28 10:28:41;;;;;;;13.30;4.63;;;;;;;24.35;52.77;101642.78;4967022;28;123686;-68
2022/10/28 10:31:20;;;;;;;10.68;4.80;;;;;;;24.41;52.60;101643.09;4967669;28;115015;-68
2022/10/28 10:33:53;;;;;;;11.38;4.70;;;;;;;24.48;52.40;101638.81;4952897;28;114651;-68
2022/10/28 10:36:27;;;;;;;16.40;4.75;;;;;;;24.55;52.33;101644.56;4952366;28;125015;-68
2022/10/28 10:39:00;;;;;;;12.30;4.68;;;;;;;24.61;52.16;101644.00;4975492;28;123573;-71
2022/10/28 10:41:40;;;;;;;14.50;4.35;;;;;;;24.66;52.17;101641.72;4959171;28;114359;-70
2022/10/28 10:44:19;;;;;;;11.63;4.20;;;;;;;24.73;52.05;101647.41;4970430;28;113996;-67
2022/10/28 10:46:58;;;;;;;10.38;4.13;;;;;;;24.79;52.01;101635.16;4971587;28;122066;-68
2022/10/28 10:49:34;;;;;;;11.98;4.18;;;;;;;24.87;51.68;101627.19;4963281;28;124290;-67
2022/10/28 10:52:22;;;;;;;14.70;4.53;;;;;;;24.94;51.84;101628.31;4966485;28;113510;-68
2022/10/28 10:55:00;;;;;;;15.00;4.32;;;;;;;25.03;51.64;101632.00;4970860;28;112707;-68
2022/10/28 10:57:27;;;;;;;12.82;3.95;;;;;;;25.10;51.60;101627.72;4982257;28;123826;-67
2022/10/28 10:59:56;;;;;;;15.27;4.28;;;;;;;25.17;51.27;101623.44;4965400;28;123389;-68
2022/10/28 11:02:31;;;;;;;12.07;4.18;;;;;;;25.24;51.23;101619.19;4952733;28;114305;-67
2022/10/28 11:05:02;;;;;;;11.27;4.40;;;;;;;25.31;50.92;101614.00;4953011;28;113468;-67
2022/10/28 11:07:31;;;;;;;13.60;4.55;;;;;;;25.38;50.46;101614.28;4961480;28;123966;-68
2022/10/28 11:09:59;;;;;;;11.80;4.10;;;;;;;25.43;50.73;101612.00;4966858;28;122846;-67
2022/10/28 11:12:27;;;;;;;13.02;4.47;;;;;;;25.48;50.45;101609.69;4966039;28;114808;-68
2022/10/28 11:15:04;;;;;;;11.63;4.20;;;;;;;25.57;49.94;101613.38;4966984;28;112738;-67
2022/10/28 11:17:33;;;;;;;13.02;3.95;;;;;;;25.63;50.09;101601.91;4966657;28;124881;-68
2022/10/28 11:20:23;;;;;;;12.93;4.20;;;;;;;25.72;50.10;101606.44;4968975;28;124175;-68
2022/10/28 11:23:18;;;;;;;13.18;4.38;;;;;;;25.80;49.96;101592.97;4961323;28;115552;-68
2022/10/28 11:25:49;;;;;;;10.32;3.97;;;;;;;25.89;49.72;101590.38;4962788;28;114049;-68
2022/10/28 11:28:32;;;;;;;13.07;4.28;;;;;;;25.96;49.41;101591.50;4968698;28;124075;-67
2022/10/28 11:30:59;;;;;;;11.95;3.88;;;;;;;26.03;49.07;101592.59;4969011;28;123258;-68